York Harbor, Maine
Current Conditions -  °F | °C
As of 5:58 AM on Saturday 25 Oct 2014 (Local Time) from KPSM Reporting Station
Scattered Clouds Scattered Clouds  
Wind Chill: 45°   Ceiling: Unl
Heat Index: 45°   Visibility: 10mi
Dew Point: 39°   Wind: 1mph
Humidity: 79%   Direction: 180°S
Pressure: 29.71"   Gusts: NA
Location:  43.14°N, 70.65°W
Report Text: KPSM 250958Z 18001KT 10SM FEW075 SCT090 07/04 A2971 RMK AO2A SLP065 T00740040
Loading
Personal Weather Stations






























Interactive Weather Map New forecast layout! Learn more

10-Day Weather Forecast

Advertisements
Track Severe Weather on mobile